Archival Weather

South Haven Area Rgnl

South Haven, Michigan (KLWA)

Report from: Tuesday, September 19, 2023 1:15 AM EDT
Current time: Saturday, July 13, 2024 9:44 PM EDT

Current weather – Weather history – Daily summaries
Weather forecast

Temperature9.6°C (49.3°F)
Dew point8.8°C (47.8°F)
Winds Calm
Visibility10 mi. (16.1 km)
Clouds Sky clear
Altimeter30.05 in.Hg (1018 mB)
Relative humidity95 %
Density altitude-633 ft. (-193 m)
Remarks Fully automated report
Automated weather observing station with precipitation discriminator
Flight conditions Visual Meteorological Conditions
Raw dataKLWA 190515Z AUTO 00000KT 10SM CLR 10/09 A3005 RMK AO2 T00960088
An error has occurred. This application may no longer respond until reloaded. Reload 🗙